createdAt,value
2023-04-23T00:01:59.712Z,2.80
2023-04-23T00:04:29.972Z,3.20
2023-04-23T00:07:00.056Z,3.40
2023-04-23T00:09:30.000Z,3.20
2023-04-23T00:12:01.881Z,3.40
2023-04-23T00:14:32.697Z,3.00
2023-04-23T00:17:02.549Z,3.70
2023-04-23T00:19:32.524Z,3.10
2023-04-23T00:22:03.109Z,3.60
2023-04-23T00:24:36.171Z,4.20
2023-04-23T00:27:06.433Z,3.30
2023-04-23T00:29:37.122Z,3.30
2023-04-23T00:32:07.811Z,4.20
2023-04-23T00:34:38.337Z,3.50
2023-04-23T00:37:08.361Z,3.20
2023-04-23T00:39:38.836Z,3.40
2023-04-23T00:42:12.688Z,3.30
2023-04-23T00:44:43.092Z,3.30
2023-04-23T00:47:13.966Z,3.60
2023-04-23T00:49:43.972Z,3.50
2023-04-23T00:52:13.825Z,3.50
2023-04-23T00:54:44.030Z,3.50
2023-04-23T00:57:14.423Z,3.50
2023-04-23T00:59:44.552Z,3.90
2023-04-23T01:02:14.953Z,3.60
2023-04-23T01:04:45.616Z,3.50
2023-04-23T01:07:15.643Z,3.40
2023-04-23T01:09:45.715Z,3.40
2023-04-23T01:12:15.613Z,3.20
2023-04-23T01:14:45.736Z,3.60
2023-04-23T01:17:16.423Z,4.00
2023-04-23T01:19:46.554Z,3.50
2023-04-23T01:22:16.838Z,3.60
2023-04-23T01:24:46.707Z,3.70
2023-04-23T01:27:16.942Z,3.50
2023-04-23T01:29:47.384Z,3.80
2023-04-23T01:32:17.298Z,4.00
2023-04-23T01:34:48.117Z,4.10
2023-04-23T01:37:18.689Z,3.70
2023-04-23T01:39:48.785Z,3.30
2023-04-23T01:42:18.763Z,3.50
2023-04-23T01:44:48.643Z,3.20
2023-04-23T01:47:18.978Z,3.50
2023-04-23T01:49:49.018Z,3.70
2023-04-23T01:52:18.879Z,3.70
2023-04-23T01:54:48.959Z,3.20
2023-04-23T01:57:24.100Z,3.70
2023-04-23T02:00:04.017Z,3.10
2023-04-23T02:02:43.148Z,2.80
2023-04-23T02:05:14.223Z,3.20
2023-04-23T02:07:44.474Z,3.60
2023-04-23T02:10:14.580Z,3.10
2023-04-23T02:12:45.021Z,3.60
2023-04-23T02:15:14.925Z,3.20
2023-04-23T02:17:44.874Z,3.20
2023-04-23T02:20:14.854Z,2.80
2023-04-23T02:22:44.770Z,3.20
2023-04-23T02:25:17.002Z,3.40
2023-04-23T02:27:46.912Z,2.90
2023-04-23T02:30:16.911Z,2.60
2023-04-23T02:32:46.920Z,2.50
2023-04-23T02:35:16.862Z,2.40
2023-04-23T02:37:46.744Z,3.10
2023-04-23T02:40:16.602Z,2.70
2023-04-23T02:42:46.468Z,2.60
2023-04-23T02:45:16.496Z,2.60
2023-04-23T02:47:46.513Z,2.60
2023-04-23T02:50:17.088Z,2.70
2023-04-23T02:52:48.352Z,2.90
2023-04-23T02:55:18.273Z,2.50
2023-04-23T02:57:48.153Z,2.80
2023-04-23T03:00:18.864Z,2.40
2023-04-23T03:02:50.093Z,2.70
2023-04-23T03:05:20.273Z,2.90
2023-04-23T03:07:50.230Z,2.70
2023-04-23T03:10:22.178Z,2.60
2023-04-23T03:12:52.441Z,3.00
2023-04-23T03:15:22.770Z,2.40
2023-04-23T03:17:53.852Z,2.40
2023-04-23T03:20:23.830Z,2.90
2023-04-23T03:28:47.783Z,2.40
2023-04-23T03:31:18.436Z,2.70
2023-04-23T03:33:48.489Z,2.60
2023-04-23T03:36:20.561Z,2.90
2023-04-23T03:38:50.466Z,2.80
2023-04-23T03:41:20.829Z,3.20
2023-04-23T03:43:51.623Z,3.20
2023-04-23T03:46:25.144Z,2.90
2023-04-23T03:48:55.704Z,3.00
2023-04-23T03:51:29.267Z,3.50
2023-04-23T03:53:59.365Z,3.10
2023-04-23T03:56:42.718Z,3.10
2023-04-23T03:59:25.866Z,3.30
2023-04-23T04:01:58.499Z,3.30
2023-04-23T04:04:29.518Z,3.30
2023-04-23T04:07:02.533Z,3.60
2023-04-23T04:09:32.850Z,3.30
2023-04-23T04:12:07.253Z,3.60
2023-04-23T04:14:38.585Z,3.40
2023-04-23T04:17:09.187Z,3.50
2023-04-23T04:19:39.200Z,3.60
2023-04-23T04:22:09.117Z,3.20
2023-04-23T04:24:39.308Z,3.20
2023-04-23T04:27:09.587Z,3.60
2023-04-23T04:29:40.934Z,3.20
2023-04-23T04:32:11.345Z,3.40
2023-04-23T04:34:41.742Z,3.30
2023-04-23T04:37:11.747Z,3.20
2023-04-23T04:39:42.468Z,3.40
2023-04-23T04:42:13.211Z,3.10
2023-04-23T04:44:43.743Z,3.40
2023-04-23T04:47:16.330Z,3.30
2023-04-23T04:49:46.867Z,3.00
2023-04-23T04:52:17.021Z,2.80
2023-04-23T04:54:47.003Z,2.60
2023-04-23T04:57:16.831Z,2.70
2023-04-23T04:59:47.293Z,2.30
2023-04-23T05:02:17.211Z,2.90
2023-04-23T05:04:47.288Z,2.90
2023-04-23T05:20:33.248Z,2.60
2023-04-23T05:23:03.338Z,3.10
2023-04-23T05:25:34.637Z,2.50
2023-04-23T05:28:04.538Z,2.70
2023-04-23T05:30:35.052Z,2.60
2023-04-23T05:33:05.170Z,2.70
2023-04-23T05:35:35.049Z,2.20
2023-04-23T05:38:06.486Z,2.20
2023-04-23T05:40:37.052Z,2.30
2023-04-23T05:43:06.881Z,2.60
2023-04-23T05:45:36.781Z,2.40
2023-04-23T05:48:06.868Z,2.30
2023-04-23T05:50:37.283Z,2.10
2023-04-23T05:53:07.501Z,2.10
2023-04-23T05:55:38.488Z,2.50
2023-04-23T05:58:08.500Z,2.40
2023-04-23T06:00:40.896Z,2.30
2023-04-23T06:03:11.144Z,2.30
2023-04-23T06:05:43.213Z,2.40
2023-04-23T06:08:13.258Z,2.30
2023-04-23T06:10:43.235Z,2.20
2023-04-23T06:13:13.303Z,2.10
2023-04-23T06:15:43.302Z,2.30
2023-04-23T06:18:13.328Z,2.40
2023-04-23T06:20:43.182Z,2.20
2023-04-23T06:23:13.948Z,2.20
2023-04-23T06:25:43.906Z,2.40
2023-04-23T06:28:13.809Z,2.60
2023-04-23T06:31:15.864Z,2.40
2023-04-23T06:33:46.569Z,2.30
2023-04-23T06:36:16.694Z,2.90
2023-04-23T06:38:46.701Z,2.30
2023-04-23T06:41:16.905Z,2.40
2023-04-23T06:43:48.322Z,2.00
2023-04-23T06:46:38.492Z,2.00
2023-04-23T06:49:08.309Z,2.70
2023-04-23T06:51:38.248Z,2.30
2023-04-23T06:54:08.387Z,2.20
2023-04-23T06:56:38.245Z,2.60
2023-04-23T06:59:08.442Z,3.10
2023-04-23T07:01:43.983Z,2.70
2023-04-23T07:04:16.645Z,2.70
2023-04-23T07:06:46.534Z,3.00
2023-04-23T07:09:16.652Z,2.40
2023-04-23T07:11:46.801Z,2.60
2023-04-23T07:14:16.668Z,2.90
2023-04-23T07:16:46.710Z,3.10
2023-04-23T07:19:16.967Z,2.60
2023-04-23T07:21:46.894Z,2.80
2023-04-23T07:24:16.866Z,2.80
2023-04-23T07:26:46.704Z,3.10
2023-04-23T07:29:16.944Z,3.00
2023-04-23T07:31:46.910Z,3.30
2023-04-23T07:34:16.817Z,3.30
2023-04-23T07:36:46.724Z,3.30
2023-04-23T07:39:16.847Z,3.10
2023-04-23T07:41:47.068Z,3.30
2023-04-23T07:44:17.016Z,3.20
2023-04-23T07:46:47.014Z,3.50
2023-04-23T07:49:16.930Z,3.20
2023-04-23T07:51:46.809Z,3.60
2023-04-23T07:54:16.968Z,3.30
2023-04-23T07:56:46.841Z,3.20
2023-04-23T07:59:17.059Z,3.40
2023-04-23T08:01:46.936Z,3.40
2023-04-23T08:04:17.300Z,3.10
2023-04-23T08:06:47.656Z,3.30
2023-04-23T08:09:17.650Z,3.50
2023-04-23T08:11:48.314Z,3.00
2023-04-23T08:14:19.075Z,3.20
2023-04-23T08:16:49.124Z,3.20
2023-04-23T08:19:19.010Z,3.00
2023-04-23T08:21:48.880Z,3.00
2023-04-23T08:24:21.621Z,3.00
2023-04-23T08:26:52.144Z,2.50
2023-04-23T08:29:22.015Z,2.00
2023-04-23T08:31:51.965Z,1.70
2023-04-23T08:34:22.057Z,2.00
2023-04-23T08:36:52.107Z,2.50
2023-04-23T08:39:22.364Z,2.10
2023-04-23T08:41:54.438Z,2.00
2023-04-23T08:44:25.466Z,2.00
2023-04-23T08:46:56.011Z,1.90
2023-04-23T08:49:26.573Z,1.80
2023-04-23T08:51:56.642Z,1.50
2023-04-23T08:54:27.970Z,1.50
2023-04-23T08:56:58.868Z,1.40
2023-04-23T08:59:29.957Z,1.20
2023-04-23T09:02:01.733Z,1.70
2023-04-23T09:17:51.033Z,2.00
2023-04-23T09:20:21.160Z,2.00
2023-04-23T09:22:54.694Z,1.90
2023-04-23T09:25:25.132Z,1.90
2023-04-23T09:27:55.569Z,1.60
2023-04-23T09:30:27.515Z,1.50
2023-04-23T09:32:57.442Z,2.00
2023-04-23T09:35:27.790Z,2.10
2023-04-23T09:37:57.896Z,1.70
2023-04-23T09:40:28.179Z,1.60
2023-04-23T09:42:58.249Z,1.50
2023-04-23T09:45:29.871Z,1.70
2023-04-23T09:47:59.937Z,2.00
2023-04-23T09:50:35.367Z,1.80
2023-04-23T09:53:05.385Z,1.50
2023-04-23T09:55:38.619Z,1.50
2023-04-23T09:58:10.959Z,1.90
2023-04-23T10:00:41.306Z,1.60
2023-04-23T10:03:12.111Z,1.60
2023-04-23T10:08:19.490Z,1.60
2023-04-23T10:13:22.568Z,1.50
2023-04-23T10:15:52.718Z,1.60
2023-04-23T10:18:22.959Z,1.90
2023-04-23T10:20:53.295Z,2.10
2023-04-23T10:23:24.477Z,2.40
2023-04-23T10:25:54.517Z,2.40
2023-04-23T10:28:29.163Z,3.00
2023-04-23T10:30:59.691Z,3.70
2023-04-23T10:33:35.165Z,3.30
2023-04-23T10:36:10.299Z,3.10
2023-04-23T10:38:48.346Z,2.30
2023-04-23T10:41:28.085Z,2.00
2023-04-23T10:43:58.983Z,2.30
2023-04-23T10:46:32.687Z,2.10
2023-04-23T10:49:16.476Z,2.10
2023-04-23T10:54:21.316Z,2.10
2023-04-23T10:56:57.709Z,2.20
2023-04-23T10:59:29.772Z,2.60
2023-04-23T11:02:05.674Z,2.70
2023-04-23T11:04:36.655Z,2.30
2023-04-23T11:07:10.160Z,2.30
2023-04-23T11:09:44.713Z,1.90
2023-04-23T11:12:31.319Z,2.20
2023-04-23T11:15:09.594Z,2.50
2023-04-23T11:18:01.621Z,2.30
2023-04-23T11:20:31.883Z,2.30
2023-04-23T11:23:01.826Z,2.00
2023-04-23T11:25:32.349Z,2.20
2023-04-23T11:28:02.651Z,2.10
2023-04-23T11:30:33.690Z,2.50
2023-04-23T11:33:03.749Z,2.00
2023-04-23T11:35:40.003Z,2.00
2023-04-23T11:38:11.349Z,2.20
2023-04-23T11:40:42.785Z,2.10
2023-04-23T11:43:13.549Z,7.60
2023-04-23T11:45:43.388Z,7.40
2023-04-23T11:48:13.534Z,3.20
2023-04-23T11:50:43.382Z,7.80
2023-04-23T11:53:14.619Z,4.30
2023-04-23T11:55:45.893Z,3.10
2023-04-23T11:58:19.163Z,2.50
2023-04-23T12:00:49.953Z,2.10
2023-04-23T12:03:20.316Z,1.90
2023-04-23T12:05:51.262Z,2.60
2023-04-23T12:08:22.802Z,2.30
2023-04-23T12:10:54.321Z,2.00
2023-04-23T12:13:24.889Z,2.00
2023-04-23T12:15:56.663Z,2.30
2023-04-23T12:18:30.021Z,2.20
2023-04-23T12:21:06.450Z,2.00
2023-04-23T12:23:37.841Z,1.90
2023-04-23T12:26:15.234Z,1.70
2023-04-23T12:28:49.730Z,1.70
2023-04-23T12:31:21.880Z,1.80
2023-04-23T12:33:59.293Z,1.80
2023-04-23T12:36:30.976Z,1.90
2023-04-23T12:39:22.616Z,1.90
2023-04-23T12:41:53.715Z,1.70
2023-04-23T12:44:23.854Z,1.50
2023-04-23T12:46:58.036Z,1.80
2023-04-23T12:49:28.280Z,1.70
2023-04-23T12:52:01.187Z,1.30
2023-04-23T12:54:32.052Z,1.20
2023-04-23T12:57:03.053Z,1.50
2023-04-23T12:59:33.188Z,1.40
2023-04-23T13:02:03.837Z,1.70
2023-04-23T13:04:34.628Z,1.70
2023-04-23T13:07:04.904Z,2.10
2023-04-23T13:09:36.044Z,2.10
2023-04-23T13:12:06.139Z,2.10
2023-04-23T13:14:36.393Z,1.90
2023-04-23T13:17:06.521Z,2.10
2023-04-23T13:19:39.775Z,2.40
2023-04-23T13:22:09.924Z,2.40
2023-04-23T13:24:40.712Z,2.10
2023-04-23T13:27:11.276Z,4.00
2023-04-23T13:29:41.916Z,3.50
2023-04-23T13:32:12.644Z,2.30
2023-04-23T13:34:42.946Z,1.70
2023-04-23T13:37:12.779Z,1.80
2023-04-23T13:39:43.358Z,1.80
2023-04-23T13:42:13.607Z,2.40
2023-04-23T13:44:43.802Z,2.90
2023-04-23T13:47:13.737Z,8.50
2023-04-23T13:49:43.834Z,7.90
2023-04-23T13:52:13.906Z,8.60
2023-04-23T13:54:44.312Z,7.10
2023-04-23T13:57:14.437Z,8.10
2023-04-23T13:59:44.680Z,3.50
2023-04-23T14:02:14.604Z,2.60
2023-04-23T14:04:44.518Z,2.00
2023-04-23T14:07:14.397Z,1.80
2023-04-23T14:09:46.521Z,1.60
2023-04-23T14:12:16.796Z,1.60
2023-04-23T14:14:46.658Z,1.60
2023-04-23T14:17:16.499Z,1.60
2023-04-23T14:19:46.377Z,1.80
2023-04-23T14:22:16.267Z,1.90
2023-04-23T14:24:50.705Z,2.10
2023-04-23T14:27:20.832Z,1.80
2023-04-23T14:29:56.681Z,2.20
2023-04-23T14:32:26.843Z,1.60
2023-04-23T14:34:56.812Z,1.90
2023-04-23T14:37:26.670Z,1.70
2023-04-23T14:39:56.566Z,1.60
2023-04-23T14:42:26.509Z,2.00
2023-04-23T14:45:00.344Z,1.90
2023-04-23T14:47:30.561Z,1.50
2023-04-23T14:50:01.319Z,1.90
2023-04-23T14:52:32.292Z,1.70
2023-04-23T14:55:02.620Z,1.50
2023-04-23T14:57:32.639Z,2.40
2023-04-23T15:00:02.725Z,2.20
2023-04-23T15:02:33.889Z,1.90
2023-04-23T15:05:05.336Z,2.20
2023-04-23T15:07:35.958Z,1.80
2023-04-23T15:10:07.856Z,2.00
2023-04-23T15:12:48.395Z,2.10
2023-04-23T15:15:37.076Z,2.00
2023-04-23T15:18:15.443Z,2.10
2023-04-23T15:20:45.874Z,2.10
2023-04-23T15:23:15.803Z,4.50
2023-04-23T15:25:45.950Z,3.00
2023-04-23T15:28:15.826Z,2.10
2023-04-23T15:30:47.609Z,2.00
2023-04-23T15:33:21.532Z,1.70
2023-04-23T15:35:51.456Z,1.90
2023-04-23T15:38:21.596Z,4.10
2023-04-23T15:40:51.676Z,3.30
2023-04-23T15:43:21.766Z,2.50
2023-04-23T15:45:53.748Z,2.20
2023-04-23T15:48:25.036Z,1.90
2023-04-23T15:50:55.190Z,2.10
2023-04-23T15:53:25.054Z,2.30
2023-04-23T15:55:55.114Z,2.10
2023-04-23T15:58:25.048Z,2.10
2023-04-23T16:00:54.992Z,2.20
2023-04-23T16:03:25.120Z,2.20
2023-04-23T16:05:55.251Z,2.10
2023-04-23T16:08:25.148Z,2.00
2023-04-23T16:10:57.070Z,2.00
2023-04-23T16:13:29.121Z,2.10
2023-04-23T16:15:59.234Z,2.30
2023-04-23T16:18:29.270Z,2.50
2023-04-23T16:23:15.597Z,2.80
2023-04-23T16:25:45.956Z,2.80
2023-04-23T16:28:16.016Z,2.90
2023-04-23T16:30:46.030Z,3.60
2023-04-23T16:33:16.344Z,3.00
2023-04-23T16:35:46.208Z,3.30
2023-04-23T16:38:16.108Z,3.20
2023-04-23T16:40:47.332Z,2.80
2023-04-23T16:43:17.307Z,2.10
2023-04-23T16:45:47.180Z,2.40
2023-04-23T16:48:19.854Z,2.90
2023-04-23T16:50:49.863Z,2.70
2023-04-23T16:53:20.366Z,2.90
2023-04-23T16:55:50.573Z,3.60
2023-04-23T16:58:22.801Z,5.00
2023-04-23T17:00:52.709Z,4.60
2023-04-23T17:03:22.659Z,6.20
2023-04-23T17:05:59.579Z,5.90
2023-04-23T17:08:29.582Z,5.60
2023-04-23T17:11:00.124Z,5.80
2023-04-23T17:13:30.118Z,5.40
2023-04-23T17:16:00.300Z,6.10
2023-04-23T17:18:30.284Z,7.10
2023-04-23T17:21:00.170Z,8.00
2023-04-23T17:23:30.087Z,8.30
2023-04-23T17:25:59.975Z,8.70
2023-04-23T17:28:29.961Z,7.80
2023-04-23T17:31:01.273Z,11.00
2023-04-23T17:50:01.767Z,6.10
2023-04-23T17:52:32.882Z,4.30
2023-04-23T17:55:03.148Z,6.10
2023-04-23T17:57:34.671Z,5.50
2023-04-23T18:00:09.875Z,5.00
2023-04-23T18:02:43.561Z,4.60
2023-04-23T18:05:14.571Z,4.80
2023-04-23T18:07:44.908Z,4.30
2023-04-23T18:10:14.955Z,4.30
2023-04-23T18:12:44.939Z,5.50
2023-04-23T18:15:15.057Z,5.70
2023-04-23T18:17:45.540Z,4.80
2023-04-23T18:20:16.256Z,4.70
2023-04-23T18:22:46.153Z,3.70
2023-04-23T18:25:16.041Z,4.80
2023-04-23T18:27:46.003Z,5.70
2023-04-23T18:30:16.349Z,5.80
2023-04-23T18:32:49.072Z,4.90
2023-04-23T18:35:19.391Z,4.60
2023-04-23T18:37:53.947Z,4.70
2023-04-23T18:40:24.455Z,4.80
2023-04-23T18:42:54.666Z,3.80
2023-04-23T18:45:24.539Z,3.70
2023-04-23T18:48:02.835Z,3.30
2023-04-23T18:50:41.848Z,4.60
2023-04-23T18:53:11.798Z,4.10
2023-04-23T18:55:41.913Z,4.20
2023-04-23T18:58:11.840Z,4.10
2023-04-23T19:00:41.909Z,4.20
2023-04-23T19:03:19.942Z,3.60
2023-04-23T19:05:55.567Z,3.10
2023-04-23T19:08:28.810Z,3.80
2023-04-23T19:10:58.888Z,3.70
2023-04-23T19:13:28.853Z,3.40
2023-04-23T19:15:59.033Z,3.70
2023-04-23T19:18:28.982Z,4.70
2023-04-23T19:20:58.979Z,4.20
2023-04-23T19:23:28.976Z,4.10
2023-04-23T19:25:59.109Z,3.90
2023-04-23T19:28:29.055Z,3.80
2023-04-23T19:30:59.154Z,4.10
2023-04-23T19:33:29.466Z,3.80
2023-04-23T19:35:59.345Z,4.10
2023-04-23T19:38:29.207Z,3.70
2023-04-23T19:40:59.144Z,3.70
2023-04-23T19:43:29.723Z,3.70
2023-04-23T19:45:59.649Z,4.00
2023-04-23T19:48:29.577Z,3.80
2023-04-23T19:50:59.617Z,3.70
2023-04-23T19:53:29.942Z,3.80
2023-04-23T19:55:59.838Z,3.80
2023-04-23T19:58:29.700Z,3.80
2023-04-23T20:00:59.649Z,4.00
2023-04-23T20:03:29.820Z,3.50
2023-04-23T20:05:59.999Z,3.40
2023-04-23T20:08:41.523Z,3.70
2023-04-23T20:11:11.771Z,3.60
2023-04-23T20:13:43.004Z,3.60
2023-04-23T20:16:13.814Z,4.20
2023-04-23T20:18:43.901Z,3.80
2023-04-23T20:21:13.956Z,3.50
2023-04-23T20:23:43.921Z,3.60
2023-04-23T20:26:14.459Z,3.70
2023-04-23T20:28:46.389Z,3.50
2023-04-23T20:31:16.282Z,3.70
2023-04-23T20:33:46.389Z,3.60
2023-04-23T20:36:16.468Z,4.00
2023-04-23T20:38:47.433Z,3.80
2023-04-23T20:41:17.523Z,3.80
2023-04-23T20:43:47.420Z,3.30
2023-04-23T20:46:17.508Z,3.70
2023-04-23T20:48:52.945Z,3.30
2023-04-23T20:51:22.830Z,3.30
2023-04-23T20:53:52.877Z,3.90
2023-04-23T20:56:23.011Z,3.50
2023-04-23T20:58:53.407Z,3.90
2023-04-23T21:01:23.351Z,3.60
2023-04-23T21:03:53.997Z,3.40
2023-04-23T21:06:24.411Z,3.90
2023-04-23T21:08:54.339Z,3.80
2023-04-23T21:11:24.945Z,3.60
2023-04-23T21:13:56.026Z,3.50
2023-04-23T21:16:26.139Z,3.40
2023-04-23T21:18:56.223Z,3.20
2023-04-23T21:21:29.649Z,3.60
2023-04-23T21:24:00.657Z,3.10
2023-04-23T21:26:31.055Z,3.40
2023-04-23T21:29:00.977Z,3.60
2023-04-23T21:31:36.285Z,3.40
2023-04-23T21:34:06.338Z,3.60
2023-04-23T21:36:36.421Z,3.60
2023-04-23T21:39:07.966Z,3.00
2023-04-23T21:41:38.201Z,3.20
2023-04-23T21:44:08.317Z,3.70
2023-04-23T21:46:38.649Z,3.20
2023-04-23T21:49:09.126Z,3.30
2023-04-23T21:51:41.077Z,3.20
2023-04-23T21:54:11.240Z,3.70
2023-04-23T21:56:41.370Z,3.60
2023-04-23T21:59:11.855Z,3.40
2023-04-23T22:01:42.166Z,3.90
2023-04-23T22:04:12.919Z,3.40
2023-04-23T22:06:44.409Z,3.50
2023-04-23T22:09:14.474Z,3.80
2023-04-23T22:12:00.716Z,3.50
2023-04-23T22:14:32.455Z,3.30
2023-04-23T22:17:03.904Z,3.70
2023-04-23T22:19:34.133Z,3.60
2023-04-23T22:22:04.014Z,3.80
2023-04-23T22:24:34.781Z,3.60
2023-04-23T22:27:04.799Z,3.40
2023-04-23T22:29:35.164Z,3.90
2023-04-23T22:32:05.081Z,3.50
2023-04-23T22:34:34.961Z,3.70
2023-04-23T22:37:04.830Z,3.90
2023-04-23T22:39:34.914Z,3.60
2023-04-23T22:42:05.174Z,3.50
2023-04-23T22:44:36.865Z,3.20
2023-04-23T22:47:07.329Z,3.20
2023-04-23T22:49:37.729Z,3.40
2023-04-23T22:52:08.889Z,3.60
2023-04-23T22:54:39.031Z,3.30
2023-04-23T22:57:09.428Z,3.90
2023-04-23T22:59:40.185Z,2.80
2023-04-23T23:02:10.612Z,3.20
2023-04-23T23:04:40.988Z,2.90
2023-04-23T23:07:11.416Z,3.60
2023-04-23T23:09:41.567Z,3.70
2023-04-23T23:12:11.885Z,3.30
2023-04-23T23:14:41.946Z,3.50
2023-04-23T23:17:11.921Z,3.40
2023-04-23T23:19:42.323Z,3.40
2023-04-23T23:22:13.309Z,3.40
2023-04-23T23:24:43.160Z,3.10
2023-04-23T23:27:13.237Z,2.90
2023-04-23T23:29:43.478Z,3.30
2023-04-23T23:32:13.712Z,3.40
2023-04-23T23:34:43.878Z,3.30
2023-04-23T23:37:14.056Z,3.60
2023-04-23T23:39:44.282Z,3.10
2023-04-23T23:42:14.473Z,3.00
2023-04-23T23:44:44.803Z,3.40
2023-04-23T23:47:15.133Z,3.50
2023-04-23T23:49:45.288Z,3.10
2023-04-23T23:52:15.132Z,3.00
2023-04-23T23:54:45.129Z,3.50
2023-04-23T23:57:15.521Z,3.80
2023-04-23T23:59:45.877Z,2.90
